Elroy, Wisconsin
Current Conditions -  °F | °C
As of 9:58 AM on Saturday 22 Nov 2014 (Local Time) from KVOK Reporting Station
Haze Haze  
Wind Chill: 36°   Ceiling: 600
Heat Index: 36°   Visibility: 6mi
Dew Point: 36°   Wind: 3mph
Humidity: 100%   Direction: 190°S
Pressure: 29.83"   Gusts: NA
Location:  43.74°N, 90.27°W
Report Text: KVOK 221558Z 19003KT 6SM BR OVC006 02/02 A2983 RMK AO2A SLP114
Loading
Personal Weather Stations






























Interactive Weather Map New forecast layout! Learn more

10-Day Weather Forecast

Advertisements
Track Severe Weather on mobile